Latest Coastal Weather Observations for Coolangatta (QLD)

IDN60701

Issued at 6:51 pm EST Tuesday 3 May 2016 (issued every 10 minutes, with the page automatically refreshed every 10 minutes)

About coastal observations | Map of coastal stations | Coastal observations for NSW | Marine services | Other Formats
Station Details ID: 040717 Name: COOLANGATTA Lat: -28.17 Lon: 153.51 Height: 4.0 m
Data from the previous 72 hours. | See also: Recent months at Coolangatta (QLD)
Date/Time
EST
Temp

°C
Wind Pressure Rain
since 9am
mm
Weather Cloud Vis
km
Sea
Height
m
Swell
Dir
 
Speed
knots
Gust
knots
hPa Trend Height
m
Period
s
Dir
03/06:30pm 23.7 NE 7 8 1011.7 - 0.0 - Partly cloudy 10 - - - -
03/06:00pm 23.8 NE 6 8 1011.3 - 0.0 - - 10 - - - -
03/05:30pm 23.8 ENE 5 7 1010.8 - 0.0 - - 10 - - - -
03/05:00pm 24.3 NE 7 9 1010.5 - 0.0 - Partly cloudy 10 - - - -
03/04:30pm 25.0 ENE 7 9 1010.3 - 0.0 - - 10 - - - -
03/04:00pm 25.1 NE 9 10 1010.1 - 0.0 - Partly cloudy 10 - - - -
03/03:30pm 25.2 NE 9 12 1010.0 - 0.0 - - 10 - - - -
03/03:00pm 26.1 NE 9 11 1009.9 - 0.0 - - 10 - - - -
03/02:30pm 25.8 NNE 10 12 1009.8 - 0.0 - - 10 - - - -
03/02:00pm 25.9 NNE 8 10 1010.0 - 0.0 - - 10 - - - -
03/01:30pm 25.9 N 10 12 1010.4 - 0.0 - - 10 - - - -
03/01:00pm 25.5 N 8 9 1010.6 - 0.0 - - 10 - - - -
03/12:30pm 26.0 N 9 12 1011.0 - 0.0 - - 10 - - - -
03/12:00pm 25.5 NNE 9 11 1011.5 - 0.0 - - 10 - - - -
03/11:30am 25.5 N 10 11 1012.0 - 0.0 - - 10 - - - -
03/11:00am 25.9 NNE 7 10 1012.3 - 0.0 - - 10 - - - -
03/10:30am 25.5 NW 3 6 1012.9 - 0.0 - - 10 - - - -
03/10:00am 25.1 NW 4 7 1013.2 - 0.0 - - 10 - - - -
03/09:30am 24.3 WNW 6 8 1013.5 - 0.0 - - 10 - - - -
03/09:00am 23.6 NNW 8 12 1013.8 - 5.4 Recent precip. - 10 - - - -
03/08:30am 22.6 NW 7 10 1013.9 - 5.4 - - 10 - - - -
03/08:00am 21.8 NNW 6 8 1013.9 - 5.2 - - 10 - - - -
03/07:30am 20.4 NNW 5 7 1013.7 - 5.2 - - 10 - - - -
03/07:00am 18.9 CALM 0 0 1013.7 - 5.2 - Partly cloudy 10 - - - -
03/06:30am 18.1 WSW 1 3 1013.8 - 5.2 - Partly cloudy 10 - - - -
03/06:00am 18.2 WNW 3 4 1013.6 - 5.2 - Cloudy 10 - - - -
03/05:30am 18.1 CALM 0 0 1013.3 - 5.2 - Cloudy 10 - - - -
03/05:00am 17.9 S 3 6 1013.1 - 5.2 - Partly cloudy 10 - - - -
03/04:30am 17.9 SSW 2 4 1012.9 - 5.2 - - 10 - - - -
03/04:00am 18.4 SW 3 5 1012.8 - 5.2 - Partly cloudy 10 - - - -
03/03:30am 18.4 WNW 1 4 1012.7 - 5.2 - Partly cloudy 10 - - - -
03/03:00am 18.5 WSW 5 8 1013.4 - 5.2 Drizzle Cloudy 10 - - - -
03/02:30am 18.5 SE 4 7 1012.8 - 5.2 - Partly cloudy 10 - - - -
03/02:00am 18.6 SW 5 8 1013.4 - 5.0 - Cloudy 10 - - - -
03/01:30am 18.7 WNW 2 5 1013.6 - 5.0 - Partly cloudy 10 - - - -
03/01:16am 18.8 W 5 7 1014.3 - 4.8 - Partly cloudy 10 - - - -
03/01:00am 19.0 SW 6 9 1014.6 - 4.6 - Partly cloudy 4 - - - -
03/12:56am 19.1 WSW 7 9 1014.7 - 4.2 - Partly cloudy 6 - - - -
03/12:30am 19.8 SW 9 14 1014.9 - 2.2 - Partly cloudy 10 - - - -
03/12:00am 19.8 SW 5 7 1014.4 - 2.0 Drizzle Cloudy 10 - - - -
 
Date/Time
EST
Temp

°C
Wind Pressure Rain
since 9am
mm
Weather Cloud Vis
km
Sea
Height
m
Swell
Dir
 
Speed
knots
Gust
knots
hPa Trend Height
m
Period
s
Dir
02/11:30pm 19.8 S 4 6 1014.3 - 2.0 - Partly cloudy 10 - - - -
02/11:00pm 20.3 SSW 5 7 1015.4 - 2.0 - Partly cloudy 10 - - - -
02/10:30pm 20.8 SW 7 10 1015.8 - 1.6 - Partly cloudy 10 - - - -
02/10:00pm 21.2 S 7 8 1015.6 - 1.6 - Partly cloudy 10 - - - -
02/09:30pm 21.5 S 6 8 1016.0 - 1.0 - Partly cloudy 10 - - - -
02/09:00pm 21.8 SW 5 6 1016.2 - 0.6 Rain Cloudy 10 - - - -
02/08:30pm 22.0 SSW 5 6 1016.3 - 0.0 - Partly cloudy 10 - - - -
02/08:00pm 21.9 SW 4 5 1015.7 - 0.0 - Partly cloudy 10 - - - -
02/07:30pm 22.0 SW 6 7 1015.9 - 0.0 - Partly cloudy 10 - - - -
02/07:00pm 22.2 WSW 1 4 1015.7 - 0.0 - Partly cloudy 10 - - - -
02/06:30pm 22.3 WSW 3 4 1015.5 - 0.0 - Partly cloudy 10 - - - -
02/06:00pm 22.4 SSW 2 4 1015.1 - 0.0 - Cloudy 10 - - - -
02/05:30pm 22.6 CALM 0 0 1014.9 - 0.0 - Partly cloudy 10 - - - -
02/05:00pm 22.9 SE 3 4 1014.4 - 0.0 - - 10 - - - -
02/04:30pm 23.5 SE 5 6 1013.9 - 0.0 - - 10 - - - -
02/04:00pm 23.7 SE 5 8 1013.8 - 0.0 - - 10 - - - -
02/03:30pm 24.0 ESE 6 8 1013.5 - 0.0 - - 10 - - - -
02/03:00pm 25.0 ESE 8 11 1013.2 - 0.0 - Mostly clear 10 - - - -
02/02:30pm 25.7 ESE 7 10 1013.5 - 0.0 - - 10 - - - -
02/02:00pm 26.0 SE 7 10 1013.8 - 0.0 - - 10 - - - -
02/01:30pm 25.4 SE 8 11 1014.2 - 0.0 - - 10 - - - -
02/01:00pm 25.6 SSE 8 11 1014.5 - 0.0 - - 10 - - - -
02/12:30pm 24.6 ESE 10 12 1014.8 - 0.0 - Partly cloudy 10 - - - -
02/12:00pm 24.9 ESE 9 14 1015.4 - 0.0 - Mostly clear 10 - - - -
02/11:30am 24.8 ESE 9 11 1015.9 - 0.0 - Partly cloudy 10 - - - -
02/11:00am 24.5 SE 8 11 1016.4 - 0.0 - Partly cloudy 10 - - - -
02/10:30am 24.5 SSE 8 10 1016.8 - 0.0 - Partly cloudy 10 - - - -
02/10:00am 24.1 SSE 7 8 1017.1 - 0.0 - - 10 - - - -
02/09:30am 24.0 SSE 7 8 1017.4 - 0.0 - - 10 - - - -
02/09:00am 23.3 SSE 6 7 1017.2 - 4.4 - Mostly cloudy 10 - - - -
02/08:30am 23.0 SSE 4 6 1017.1 - 4.4 - - 10 - - - -
02/08:00am 21.9 SW 3 6 1017.0 - 4.4 - - 10 - - - -
02/07:30am 20.9 SW 2 4 1016.9 - 4.4 - - 10 - - - -
02/07:00am 20.1 CALM 0 0 1016.8 - 4.4 - - 10 - - - -
02/06:30am 19.3 CALM 0 0 1016.8 - 4.4 - Partly cloudy 10 - - - -
02/06:16am 19.3 CALM 0 0 1016.7 - 4.4 - Partly cloudy 10 - - - -
02/06:00am 19.1 CALM 0 0 1016.5 - 4.4 - - 6 - - - -
02/05:30am 19.9 WSW 5 6 1016.1 - 4.4 - - 10 - - - -
02/05:00am 19.8 S 2 4 1015.6 - 4.4 - Partly cloudy 10 - - - -
02/04:30am 20.3 S 1 5 1015.4 - 4.4 - Partly cloudy 10 - - - -
02/04:00am 20.2 CALM 0 0 1015.3 - 4.4 - Partly cloudy 10 - - - -
02/03:30am 20.1 S 4 5 1015.3 - 4.4 - Partly cloudy 10 - - - -
02/03:00am 20.4 SSW 1 3 1015.2 - 4.4 - Cloudy 10 - - - -
02/02:30am 20.2 SSW 4 6 1015.3 - 4.4 - Partly cloudy 10 - - - -
02/02:25am 20.2 SW 5 6 1015.3 - 4.4 - Partly cloudy 10 - - - -
02/02:00am 20.0 SW 8 10 1015.5 - 4.4 - Partly cloudy 10 - - - -
02/01:38am 19.9 W 4 5 1014.9 - 4.4 - Partly cloudy 10 - - - -
02/01:30am 19.7 WSW 3 4 1015.0 - 4.4 - Partly cloudy 10 - - - -
02/01:00am 19.6 SW 3 4 1015.2 - 4.4 - - 10 - - - -
02/12:30am 20.0 CALM 0 0 1015.7 - 4.4 - Partly cloudy 10 - - - -
02/12:00am 20.3 CALM 0 3 1015.7 - 4.4 - - 10 - - - -
 
Date/Time
EST
Temp

°C
Wind Pressure Rain
since 9am
mm
Weather Cloud Vis
km
Sea
Height
m
Swell
Dir
 
Speed
knots
Gust
knots
hPa Trend Height
m
Period
s
Dir
01/11:30pm 20.5 WSW 7 10 1015.9 - 4.4 - - 10 - - - -
01/11:00pm 20.6 W 4 5 1016.2 - 4.4 - Partly cloudy 9 - - - -
01/10:30pm 20.6 N 6 7 1016.1 - 4.4 - Partly cloudy 10 - - - -
01/10:00pm 20.4 CALM 0 1 1016.8 - 4.4 - Partly cloudy 10 - - - -
01/09:30pm 20.3 S 2 4 1017.1 - 4.4 - - 10 - - - -
01/09:00pm 20.2 NW 4 5 1017.1 - 4.4 - Mostly cloudy 10 - - - -
01/08:30pm 20.8 SW 5 6 1017.2 - 4.4 - Partly cloudy 10 - - - -
01/08:00pm 20.5 W 6 7 1016.8 - 4.4 - Partly cloudy 10 - - - -
01/07:30pm 20.4 W 6 7 1016.4 - 4.4 - Partly cloudy 10 - - - -
01/07:00pm 20.6 WNW 5 6 1016.1 - 4.4 - Partly cloudy 10 - - - -
01/06:30pm 20.6 WNW 4 5 1015.8 - 4.4 - - 10 - - - -
01/06:00pm 21.5 NNW 3 4 1015.8 - 4.4 - Mostly cloudy 10 - - - -
01/05:30pm 21.9 NNW 5 7 1015.5 - 4.4 - Cloudy 10 - - - -
01/05:00pm 22.2 WNW 7 8 1015.7 - 4.4 - Cloudy 10 - - - -
01/04:30pm 22.5 ENE 11 15 1015.1 - 4.4 - Partly cloudy 10 - - - -
01/04:00pm 22.6 NNE 6 8 1015.8 - 4.4 - Cloudy 10 - - - -
01/03:30pm 22.3 NW 7 12 1015.8 - 4.4 - Cloudy 10 - - - -
01/03:00pm 23.1 N 9 12 1015.4 - 4.4 Showers Mostly cloudy 10 - - - -
01/02:30pm 22.7 NNE 9 12 1015.3 - 4.4 - Partly cloudy 10 - - - -
01/02:00pm 22.7 N 7 10 1015.4 - 4.4 - Partly cloudy 10 - - - -
01/01:30pm 22.6 N 8 10 1015.6 - 4.4 - Cloudy 10 - - - -
01/01:00pm 22.6 N 7 9 1016.1 - 4.2 - Partly cloudy 10 - - - -
01/12:30pm 22.3 NNW 7 8 1016.8 - 4.0 - Partly cloudy 10 - - - -
01/12:06pm 21.9 N 10 13 1017.0 - 4.0 - Partly cloudy 10 - - - -
01/12:00pm 22.1 NNE 10 13 1016.9 - 4.0 Drizzle Cloudy 10 - - - -
01/11:30am 22.1 NNW 7 11 1017.8 - 4.0 - Cloudy 5 - - - -
01/11:00am 21.8 NW 5 7 1018.3 - 3.6 - Partly cloudy 4 - - - -
01/10:33am 21.5 WNW 7 9 1019.1 - 2.4 - Partly cloudy 6 - - - -
01/10:30am 21.6 WNW 8 10 1019.1 - 2.2 - Partly cloudy 8 - - - -
01/10:18am 21.5 WNW 8 11 1019.0 - 2.2 - Partly cloudy 9 - - - -
01/10:00am 21.4 NW 8 11 1019.2 - 2.0 - Partly cloudy 5 - - - -
01/09:30am 21.5 WNW 8 12 1019.7 - 1.0 - Partly cloudy 6 - - - -
01/09:04am 21.8 NW 10 13 1019.7 - 0.0 - Partly cloudy 6 - - - -
01/09:00am 21.9 NW 10 13 1019.7 - 2.6 Showers Cloudy 9 - - - -
01/08:30am 22.1 WNW 8 12 1019.5 - 2.6 - Partly cloudy 10 - - - -
01/08:00am 22.2 NW 7 10 1019.1 - 2.6 - Partly cloudy 10 - - - -
01/07:30am 22.0 NW 5 9 1018.8 - 2.6 - Cloudy 10 - - - -
01/07:00am 21.8 NW 6 8 1018.5 - 2.6 - Partly cloudy 10 - - - -
01/06:30am 21.9 NNW 8 13 1018.3 - 2.4 - Partly cloudy 10 - - - -
01/06:00am 22.0 NW 8 11 1018.1 - 2.2 Drizzle Mostly cloudy 9 - - - -
01/05:30am 21.9 NNW 7 9 1017.7 - 2.2 - Partly cloudy 10 - - - -
01/05:00am 21.6 NW 4 5 1017.7 - 2.0 - Partly cloudy 10 - - - -
01/04:35am 21.6 WNW 4 5 1017.6 - 2.0 - Partly cloudy 10 - - - -
01/04:30am 21.6 WNW 3 5 1017.5 - 2.0 - Partly cloudy 10 - - - -
01/04:23am 21.5 CALM 0 4 1017.6 - 2.0 - Partly cloudy 10 - - - -
01/04:22am 21.5 CALM 0 0 1017.6 - 2.0 - Partly cloudy 10 - - - -
01/04:05am 21.4 NE 2 6 1017.6 - 2.0 - Partly cloudy 6 - - - -
01/04:04am 21.4 ENE 1 5 1017.6 - 2.0 - Partly cloudy 7 - - - -
01/04:00am 21.4 CALM 0 0 1017.5 - 1.6 - Partly cloudy 10 - - - -
01/03:30am 21.2 SE 2 4 1017.5 - 1.6 - Partly cloudy 10 - - - -
01/03:00am 21.0 CALM 0 0 1017.6 - 1.4 - Partly cloudy 9 - - - -
01/02:30am 21.2 CALM 0 0 1017.7 - 1.4 - Partly cloudy 10 - - - -
01/02:28am 21.2 CALM 0 0 1017.8 - 1.4 - Partly cloudy 10 - - - -
01/02:09am 21.2 WSW 3 4 1017.9 - 1.4 - Partly cloudy 4 - - - -
01/02:00am 21.1 WSW 3 4 1018.0 - 1.4 - Partly cloudy 9 - - - -
01/01:30am 21.1 WSW 4 6 1018.2 - 1.4 - Partly cloudy 10 - - - -
01/01:00am 21.0 WSW 4 6 1018.7 - 1.4 - - 10 - - - -
01/12:30am 21.5 CALM 0 0 1019.0 - 1.4 - Partly cloudy 10 - - - -
01/12:00am 21.8 WNW 3 5 1019.2 - 1.4 Drizzle Cloudy 10 - - - -
 
Date/Time
EST
Temp

°C
Wind Pressure Rain
since 9am
mm
Weather Cloud Vis
km
Sea
Height
m
Swell
Dir
 
Speed
knots
Gust
knots
hPa Trend Height
m
Period
s
Dir
30/11:30pm 21.6 WSW 3 4 1019.5 - 1.4 - Partly cloudy 10 - - - -
30/11:00pm 21.7 WSW 4 5 1019.6 - 1.4 - Partly cloudy 10 - - - -
30/10:30pm 21.9 WSW 5 6 1019.8 - 1.4 - Partly cloudy 10 - - - -
30/10:00pm 21.8 WSW 5 7 1020.0 - 1.4 - Partly cloudy 10 - - - -
30/09:30pm 21.9 WSW 3 6 1020.1 - 1.4 - Partly cloudy 10 - - - -
30/09:00pm 21.8 CALM 0 3 1020.3 - 1.4 - Cloudy 10 - - - -
30/08:30pm 22.7 NNW 4 7 1020.2 - 1.4 - Partly cloudy 10 - - - -
30/08:00pm 23.2 NE 5 6 1020.0 - 1.4 - Partly cloudy 10 - - - -
30/07:30pm 22.5 SW 2 4 1019.9 - 1.4 - Partly cloudy 10 - - - -
30/07:00pm 23.2 E 5 8 1019.6 - 1.4 - Partly cloudy 10 - - - -

Other Formats:

Comma delimited format used in spreadsheet applications
http://www.bom.gov.au/fwo/IDN60701/IDN60701.94592.axf

JavaScript Object Notation format (JSON) in row-major order
http://www.bom.gov.au/fwo/IDN60701/IDN60701.94592.json